createdAt,value
2019-03-02T00:00:02.126Z,99.90
2019-03-02T00:02:32.462Z,99.90
2019-03-02T00:05:02.669Z,99.90
2019-03-02T00:07:32.940Z,99.90
2019-03-02T00:10:03.201Z,99.90
2019-03-02T00:12:33.456Z,99.90
2019-03-02T00:15:03.925Z,99.90
2019-03-02T00:17:34.203Z,99.90
2019-03-02T00:20:04.559Z,99.90
2019-03-02T00:22:34.784Z,99.90
2019-03-02T00:25:05.070Z,99.90
2019-03-02T00:27:35.304Z,99.90
2019-03-02T00:30:06.028Z,99.90
2019-03-02T00:32:36.228Z,99.90
2019-03-02T00:35:07.232Z,99.90
2019-03-02T00:37:38.337Z,99.90
2019-03-02T00:40:08.835Z,99.90
2019-03-02T00:42:39.116Z,99.90
2019-03-02T00:45:10.694Z,99.90
2019-03-02T00:47:41.334Z,99.90
2019-03-02T00:50:11.880Z,99.90
2019-03-02T00:52:42.144Z,99.90
2019-03-02T00:55:12.334Z,99.90
2019-03-02T00:57:42.520Z,99.90
2019-03-02T01:00:15.378Z,99.90
2019-03-02T01:02:45.812Z,99.90
2019-03-02T01:05:16.347Z,99.90
2019-03-02T01:07:46.836Z,99.90
2019-03-02T01:10:18.960Z,99.90
2019-03-02T01:12:49.203Z,99.90
2019-03-02T01:15:19.418Z,99.90
2019-03-02T01:17:49.700Z,99.90
2019-03-02T01:20:20.049Z,99.90
2019-03-02T01:22:51.787Z,99.90
2019-03-02T01:25:22.351Z,99.90
2019-03-02T01:27:52.550Z,99.90
2019-03-02T01:30:22.835Z,99.90
2019-03-02T01:32:53.673Z,99.90
2019-03-02T01:35:23.985Z,99.90
2019-03-02T01:37:54.220Z,99.90
2019-03-02T01:40:24.512Z,99.90
2019-03-02T01:42:54.805Z,99.90
2019-03-02T01:45:27.675Z,99.90
2019-03-02T01:47:57.137Z,99.90
2019-03-02T01:50:27.411Z,99.90
2019-03-02T01:52:57.704Z,99.90
2019-03-02T01:55:31.126Z,99.90
2019-03-02T01:57:59.959Z,99.90
2019-03-02T02:00:30.508Z,99.90
2019-03-02T02:03:00.715Z,99.90
2019-03-02T02:05:31.954Z,99.90
2019-03-02T02:08:02.989Z,99.90
2019-03-02T02:10:33.264Z,99.90
2019-03-02T02:13:06.206Z,99.90
2019-03-02T02:15:35.785Z,99.90
2019-03-02T02:18:06.072Z,99.90
2019-03-02T02:20:36.297Z,99.90
2019-03-02T02:23:09.659Z,99.90
2019-03-02T02:25:38.395Z,99.90
2019-03-02T02:28:08.593Z,99.90
2019-03-02T02:30:38.816Z,99.90
2019-03-02T02:33:09.008Z,99.90
2019-03-02T02:35:40.220Z,99.90
2019-03-02T02:38:15.809Z,99.90
2019-03-02T02:40:43.139Z,99.90
2019-03-02T02:43:20.420Z,99.90
2019-03-02T02:45:49.038Z,99.90
2019-03-02T02:48:17.253Z,99.90
2019-03-02T02:50:47.685Z,99.90
2019-03-02T02:53:17.882Z,99.90
2019-03-02T02:55:48.115Z,99.90
2019-03-02T02:58:19.414Z,99.90
2019-03-02T03:00:54.787Z,99.90
2019-03-02T03:03:22.610Z,99.90
2019-03-02T03:05:53.957Z,99.90
2019-03-02T03:08:40.116Z,99.90
2019-03-02T03:11:10.738Z,99.90
2019-03-02T03:13:42.330Z,99.90
2019-03-02T03:16:16.575Z,99.90
2019-03-02T03:18:46.954Z,99.90
2019-03-02T03:21:16.760Z,99.90
2019-03-02T03:23:46.942Z,99.90
2019-03-02T03:26:17.150Z,99.90
2019-03-02T03:28:47.425Z,99.90
2019-03-02T03:31:23.056Z,99.90
2019-03-02T03:33:49.721Z,99.90
2019-03-02T03:36:20.016Z,99.90
2019-03-02T03:38:50.288Z,99.90
2019-03-02T03:41:20.504Z,99.90
2019-03-02T03:43:50.692Z,99.90
2019-03-02T03:46:22.369Z,99.90
2019-03-02T03:48:56.259Z,99.90
2019-03-02T03:51:26.273Z,99.90
2019-03-02T03:54:01.772Z,99.90
2019-03-02T03:56:28.738Z,99.90
2019-03-02T03:58:58.932Z,99.90
2019-03-02T04:01:29.266Z,99.90
2019-03-02T04:03:59.642Z,99.90
2019-03-02T04:06:29.835Z,99.90
2019-03-02T04:09:03.365Z,99.90
2019-03-02T04:11:32.030Z,99.90
2019-03-02T04:14:02.219Z,99.90
2019-03-02T04:16:32.430Z,99.90
2019-03-02T04:19:03.155Z,99.90
2019-03-02T04:21:41.585Z,99.90
2019-03-02T04:24:11.849Z,99.90
2019-03-02T04:26:42.051Z,99.90
2019-03-02T04:29:12.315Z,99.90
2019-03-02T04:31:43.871Z,99.90
2019-03-02T04:34:20.695Z,99.90
2019-03-02T04:36:47.452Z,99.90
2019-03-02T04:39:18.320Z,99.90
2019-03-02T04:41:48.527Z,99.90
2019-03-02T04:44:18.724Z,99.90
2019-03-02T04:46:51.382Z,99.90
2019-03-02T04:49:21.025Z,99.90
2019-03-02T04:51:51.393Z,99.90
2019-03-02T04:54:21.594Z,99.90
2019-03-02T04:56:51.889Z,99.90
2019-03-02T04:59:23.001Z,99.90
2019-03-02T05:01:53.346Z,99.90
2019-03-02T05:04:23.514Z,99.90
2019-03-02T05:06:54.499Z,99.90
2019-03-02T05:09:25.820Z,99.90
2019-03-02T05:11:56.093Z,99.90
2019-03-02T05:14:26.282Z,99.90
2019-03-02T05:16:56.527Z,99.90
2019-03-02T05:19:29.159Z,99.90
2019-03-02T05:21:58.820Z,99.90
2019-03-02T05:24:29.092Z,99.90
2019-03-02T05:26:59.384Z,99.90
2019-03-02T05:29:29.692Z,99.90
2019-03-02T05:31:59.868Z,99.90
2019-03-02T05:34:30.180Z,99.90
2019-03-02T05:37:02.873Z,99.90
2019-03-02T05:39:32.446Z,99.90
2019-03-02T05:42:02.750Z,99.90
2019-03-02T05:44:33.080Z,99.90
2019-03-02T05:47:03.397Z,99.90
2019-03-02T05:49:33.616Z,99.90
2019-03-02T05:52:03.901Z,99.90
2019-03-02T05:54:34.185Z,99.90
2019-03-02T05:57:05.497Z,99.90
2019-03-02T05:59:35.828Z,99.90
2019-03-02T06:02:06.105Z,99.90
2019-03-02T06:04:36.397Z,99.90
2019-03-02T06:07:06.661Z,99.90
2019-03-02T06:09:36.915Z,99.90
2019-03-02T06:12:07.118Z,99.90
2019-03-02T06:14:37.460Z,99.90
2019-03-02T06:17:07.665Z,99.90
2019-03-02T06:19:37.881Z,99.90
2019-03-02T06:22:08.044Z,99.90
2019-03-02T06:24:41.069Z,99.90
2019-03-02T06:27:10.910Z,99.90
2019-03-02T06:29:42.033Z,99.90
2019-03-02T06:32:12.305Z,99.90
2019-03-02T06:34:42.588Z,99.90
2019-03-02T06:37:12.886Z,99.90
2019-03-02T06:39:44.508Z,99.90
2019-03-02T06:42:14.849Z,99.90
2019-03-02T06:44:45.076Z,99.90
2019-03-02T06:47:15.321Z,99.90
2019-03-02T06:49:45.583Z,99.90
2019-03-02T06:52:19.195Z,99.90
2019-03-02T06:54:48.288Z,99.90
2019-03-02T06:57:19.336Z,99.90
2019-03-02T06:59:49.664Z,99.90
2019-03-02T07:02:19.951Z,99.90
2019-03-02T07:04:50.196Z,99.90
2019-03-02T07:07:21.753Z,99.90
2019-03-02T07:09:52.371Z,99.90
2019-03-02T07:12:22.586Z,99.90
2019-03-02T07:14:52.921Z,99.90
2019-03-02T07:17:46.541Z,99.90
2019-03-02T07:20:19.814Z,99.90
2019-03-02T07:22:52.480Z,99.90
2019-03-02T07:25:22.030Z,99.90
2019-03-02T07:27:52.308Z,99.90
2019-03-02T07:30:22.619Z,99.90
2019-03-02T07:32:54.754Z,99.90
2019-03-02T07:35:24.805Z,99.90
2019-03-02T07:37:55.082Z,99.90
2019-03-02T07:40:25.365Z,99.90
2019-03-02T07:42:55.600Z,99.90
2019-03-02T07:45:27.190Z,99.90
2019-03-02T07:48:00.335Z,99.90
2019-03-02T07:50:29.799Z,99.90
2019-03-02T07:53:00.167Z,99.90
2019-03-02T07:55:30.436Z,99.90
2019-03-02T07:58:00.647Z,99.90
2019-03-02T08:00:31.981Z,99.90
2019-03-02T08:03:02.267Z,99.90
2019-03-02T08:05:32.448Z,99.90
2019-03-02T08:08:02.746Z,99.90
2019-03-02T08:10:34.755Z,99.90
2019-03-02T08:13:05.017Z,99.90
2019-03-02T08:15:35.302Z,99.90
2019-03-02T08:18:05.729Z,99.90
2019-03-02T08:20:35.992Z,99.90
2019-03-02T08:23:06.379Z,99.90
2019-03-02T08:25:36.692Z,99.90
2019-03-02T08:28:10.008Z,99.90
2019-03-02T08:30:38.922Z,99.90
2019-03-02T08:33:09.342Z,99.90
2019-03-02T08:35:39.549Z,99.90
2019-03-02T08:38:09.952Z,99.90
2019-03-02T08:40:40.253Z,99.90
2019-03-02T08:43:12.993Z,99.90
2019-03-02T08:45:42.571Z,99.90
2019-03-02T08:48:12.948Z,99.90
2019-03-02T08:50:43.250Z,99.90
2019-03-02T08:53:13.573Z,99.90
2019-03-02T08:55:43.811Z,99.90
2019-03-02T08:58:14.061Z,99.90
2019-03-02T09:00:44.353Z,99.90
2019-03-02T09:03:14.677Z,99.90
2019-03-02T09:05:51.279Z,99.90
2019-03-02T09:08:17.053Z,99.90
2019-03-02T09:10:49.164Z,99.90
2019-03-02T09:13:19.341Z,99.90
2019-03-02T09:15:49.627Z,99.90
2019-03-02T09:18:19.933Z,99.90
2019-03-02T09:20:50.240Z,99.90
2019-03-02T09:23:20.545Z,99.90
2019-03-02T09:25:50.864Z,99.90
2019-03-02T09:28:21.750Z,99.90
2019-03-02T09:30:52.109Z,99.90
2019-03-02T09:33:24.711Z,99.90
2019-03-02T09:35:55.062Z,99.90
2019-03-02T09:38:25.926Z,99.90
2019-03-02T09:40:56.149Z,99.90
2019-03-02T09:43:26.473Z,99.90
2019-03-02T09:45:56.755Z,99.90
2019-03-02T09:48:27.076Z,99.90
2019-03-02T09:50:57.293Z,99.90
2019-03-02T09:53:27.580Z,99.90
2019-03-02T09:55:58.470Z,99.90
2019-03-02T09:58:29.847Z,99.90
2019-03-02T10:01:01.058Z,99.90
2019-03-02T10:03:32.266Z,99.90
2019-03-02T10:06:02.542Z,99.90
2019-03-02T10:08:32.797Z,99.90
2019-03-02T10:11:06.069Z,99.90
2019-03-02T10:13:35.185Z,99.90
2019-03-02T10:16:05.740Z,99.90
2019-03-02T10:18:36.088Z,99.90
2019-03-02T10:21:06.498Z,99.90
2019-03-02T10:23:38.945Z,99.90
2019-03-02T10:26:08.956Z,99.90
2019-03-02T10:28:39.205Z,99.80
2019-03-02T10:31:09.431Z,99.90
2019-03-02T10:33:39.734Z,99.90
2019-03-02T10:36:10.035Z,99.90
2019-03-02T10:38:40.280Z,99.90
2019-03-02T10:41:10.585Z,99.90
2019-03-02T10:43:42.786Z,99.90
2019-03-02T10:46:12.894Z,99.70
2019-03-02T10:48:43.148Z,99.90
2019-03-02T10:51:13.469Z,99.90
2019-03-02T10:53:43.760Z,99.90
2019-03-02T10:56:14.012Z,99.90
2019-03-02T10:58:44.309Z,99.90
2019-03-02T11:01:14.549Z,99.90
2019-03-02T11:03:44.914Z,99.80
2019-03-02T11:06:34.163Z,99.90
2019-03-02T11:09:22.545Z,99.80
2019-03-02T11:12:12.434Z,99.90
2019-03-02T11:15:13.673Z,99.90
2019-03-02T11:18:01.267Z,99.90
2019-03-02T11:20:59.010Z,99.90
2019-03-02T11:23:41.274Z,99.90
2019-03-02T11:26:33.477Z,99.90
2019-03-02T11:29:27.887Z,99.90
2019-03-02T11:32:16.899Z,99.90
2019-03-02T11:35:06.810Z,99.90
2019-03-02T11:37:58.046Z,99.90
2019-03-02T11:40:47.137Z,99.50
2019-03-02T11:43:39.148Z,99.70
2019-03-02T11:46:31.970Z,99.40
2019-03-02T11:49:38.479Z,99.00
2019-03-02T11:52:18.330Z,98.90
2019-03-02T11:55:10.680Z,98.50
2019-03-02T11:57:58.841Z,98.40
2019-03-02T12:00:54.261Z,98.00
2019-03-02T12:03:50.412Z,97.60
2019-03-02T12:06:48.779Z,97.80
2019-03-02T12:09:27.809Z,97.50
2019-03-02T12:12:09.559Z,97.40
2019-03-02T12:14:46.281Z,97.50
2019-03-02T12:17:37.900Z,97.30
2019-03-02T12:20:20.209Z,96.90
2019-03-02T12:23:08.974Z,97.30
2019-03-02T12:25:56.903Z,97.10
2019-03-02T12:28:49.193Z,96.90
2019-03-02T12:31:37.977Z,96.60
2019-03-02T12:34:22.921Z,96.60
2019-03-02T12:37:14.942Z,96.40
2019-03-02T12:40:04.374Z,96.40
2019-03-02T12:42:53.653Z,96.30
2019-03-02T12:45:51.984Z,96.40
2019-03-02T12:48:47.039Z,96.50
2019-03-02T12:51:23.252Z,96.90
2019-03-02T12:54:24.912Z,97.40
2019-03-02T12:57:09.874Z,97.10
2019-03-02T12:59:56.028Z,97.50
2019-03-02T13:02:52.562Z,97.60
2019-03-02T13:05:40.545Z,97.40
2019-03-02T13:08:28.496Z,97.30
2019-03-02T13:11:14.492Z,97.10
2019-03-02T13:14:12.903Z,97.00
2019-03-02T13:16:52.407Z,96.00
2019-03-02T13:19:33.772Z,95.10
2019-03-02T13:22:26.200Z,94.80
2019-03-02T13:25:12.603Z,94.60
2019-03-02T13:28:11.000Z,93.60
2019-03-02T13:31:15.141Z,93.60
2019-03-02T13:34:03.161Z,94.50
2019-03-02T13:36:52.448Z,94.40
2019-03-02T13:39:47.165Z,94.20
2019-03-02T13:42:28.008Z,93.80
2019-03-02T13:45:35.540Z,93.60
2019-03-02T13:48:25.671Z,93.60
2019-03-02T13:51:16.384Z,93.90
2019-03-02T13:54:11.514Z,94.00
2019-03-02T13:57:12.707Z,94.20
2019-03-02T14:00:03.509Z,94.30
2019-03-02T14:02:55.574Z,94.40
2019-03-02T14:05:50.568Z,94.50
2019-03-02T14:08:52.073Z,95.00
2019-03-02T14:11:56.516Z,95.00
2019-03-02T14:14:44.553Z,94.60
2019-03-02T14:17:40.704Z,94.10
2019-03-02T14:20:38.767Z,94.20
2019-03-02T14:23:15.587Z,94.20
2019-03-02T14:25:51.099Z,94.40
2019-03-02T14:28:40.335Z,94.90
2019-03-02T14:31:20.018Z,94.50
2019-03-02T14:34:12.076Z,95.30
2019-03-02T14:36:50.633Z,94.70
2019-03-02T14:39:30.497Z,94.90
2019-03-02T14:42:07.975Z,95.50
2019-03-02T14:44:56.637Z,95.00
2019-03-02T14:47:55.085Z,95.50
2019-03-02T14:50:45.161Z,95.60
2019-03-02T14:53:32.930Z,95.20
2019-03-02T14:56:13.802Z,96.10
2019-03-02T14:59:01.967Z,96.00
2019-03-02T15:01:51.255Z,96.00
2019-03-02T15:04:45.264Z,96.30
2019-03-02T15:07:37.332Z,96.40
2019-03-02T15:10:26.717Z,96.80
2019-03-02T15:13:11.356Z,97.00
2019-03-02T15:16:05.939Z,97.30
2019-03-02T15:18:53.819Z,97.20
2019-03-02T15:21:34.890Z,97.10
2019-03-02T15:24:22.510Z,96.80
2019-03-02T15:27:06.441Z,96.80
2019-03-02T15:29:58.756Z,96.90
2019-03-02T15:32:47.998Z,96.80
2019-03-02T15:35:33.664Z,97.00
2019-03-02T15:38:17.454Z,96.60
2019-03-02T15:40:59.294Z,97.00
2019-03-02T15:43:48.568Z,96.50
2019-03-02T15:46:52.755Z,95.80
2019-03-02T15:49:47.925Z,96.10
2019-03-02T15:52:26.362Z,96.40
2019-03-02T15:55:12.080Z,96.00
2019-03-02T15:58:01.347Z,95.60
2019-03-02T16:00:53.419Z,95.80
2019-03-02T16:03:35.129Z,96.00
2019-03-02T16:06:19.644Z,95.70
2019-03-02T16:09:05.494Z,95.80
2019-03-02T16:11:49.366Z,96.30
2019-03-02T16:14:44.677Z,96.10
2019-03-02T16:17:22.327Z,96.20
2019-03-02T16:20:18.521Z,96.50
2019-03-02T16:23:09.694Z,96.30
2019-03-02T16:26:04.166Z,96.50
2019-03-02T16:28:42.569Z,96.60
2019-03-02T16:31:24.099Z,96.60
2019-03-02T16:34:12.555Z,97.10
2019-03-02T16:37:00.309Z,96.80
2019-03-02T16:39:44.759Z,97.10
2019-03-02T16:42:34.024Z,96.80
2019-03-02T16:45:15.379Z,96.90
2019-03-02T16:48:11.385Z,97.00
2019-03-02T16:50:58.150Z,97.10
2019-03-02T16:53:53.668Z,96.80
2019-03-02T16:56:34.623Z,97.00
2019-03-02T16:59:32.236Z,96.90
2019-03-02T17:02:26.952Z,97.00
2019-03-02T17:05:16.206Z,97.20
2019-03-02T17:08:11.479Z,97.20
2019-03-02T17:11:01.054Z,97.10
2019-03-02T17:13:37.988Z,97.10
2019-03-02T17:16:25.664Z,97.40
2019-03-02T17:19:14.479Z,97.60
2019-03-02T17:21:52.861Z,97.80
2019-03-02T17:24:50.945Z,98.10
2019-03-02T17:27:31.052Z,97.90
2019-03-02T17:30:35.232Z,98.30
2019-03-02T17:33:17.465Z,98.20
2019-03-02T17:36:05.763Z,98.20
2019-03-02T17:38:48.708Z,98.30
2019-03-02T17:41:51.352Z,98.10
2019-03-02T17:44:32.414Z,98.10
2019-03-02T17:47:10.066Z,98.30
2019-03-02T17:50:16.236Z,98.60
2019-03-02T17:53:05.346Z,98.70
2019-03-02T17:56:06.743Z,98.80
2019-03-02T17:58:55.595Z,98.80
2019-03-02T18:01:49.037Z,98.80
2019-03-02T18:04:37.129Z,98.90
2019-03-02T18:07:24.477Z,98.70
2019-03-02T18:10:28.632Z,98.70
2019-03-02T18:13:20.398Z,98.90
2019-03-02T18:16:08.082Z,98.80
2019-03-02T18:18:38.369Z,98.70
2019-03-02T18:21:08.728Z,98.50
2019-03-02T18:23:39.091Z,98.70
2019-03-02T18:26:11.112Z,98.70
2019-03-02T18:28:41.358Z,98.80
2019-03-02T18:31:11.574Z,98.60
2019-03-02T18:33:51.018Z,98.80
2019-03-02T18:36:21.317Z,98.80
2019-03-02T18:38:51.615Z,98.80
2019-03-02T18:41:21.808Z,99.00
2019-03-02T18:43:52.130Z,98.90
2019-03-02T18:46:22.435Z,99.00
2019-03-02T18:49:13.875Z,98.80
2019-03-02T18:52:10.232Z,98.80
2019-03-02T18:54:40.623Z,98.80
2019-03-02T18:57:13.218Z,99.00
2019-03-02T18:59:43.394Z,98.90
2019-03-02T19:02:15.096Z,98.70
2019-03-02T19:04:46.332Z,98.70
2019-03-02T19:07:16.646Z,98.70
2019-03-02T19:09:46.953Z,98.70
2019-03-02T19:12:17.288Z,98.70
2019-03-02T19:14:47.615Z,98.70
2019-03-02T19:17:17.912Z,98.90
2019-03-02T19:19:48.207Z,98.80
2019-03-02T19:22:18.433Z,98.70
2019-03-02T19:24:48.833Z,98.80
2019-03-02T19:27:19.113Z,98.60
2019-03-02T19:29:49.449Z,98.80
2019-03-02T19:32:19.825Z,98.70
2019-03-02T19:34:50.049Z,99.00
2019-03-02T19:37:20.352Z,98.80
2019-03-02T19:39:50.699Z,98.90
2019-03-02T19:42:20.919Z,99.00
2019-03-02T19:44:51.166Z,98.90
2019-03-02T19:47:21.451Z,99.10
2019-03-02T19:49:51.832Z,99.20
2019-03-02T19:52:22.198Z,99.00
2019-03-02T19:54:52.407Z,99.30
2019-03-02T19:57:22.710Z,99.20
2019-03-02T19:59:52.918Z,99.30
2019-03-02T20:02:23.237Z,99.50
2019-03-02T20:04:53.471Z,99.50
2019-03-02T20:07:23.796Z,99.70
2019-03-02T20:09:54.097Z,99.80
2019-03-02T20:12:24.438Z,99.90
2019-03-02T20:14:54.874Z,99.90
2019-03-02T20:17:25.207Z,99.90
2019-03-02T20:19:55.441Z,99.90
2019-03-02T20:22:25.785Z,99.90
2019-03-02T20:24:56.110Z,99.90
2019-03-02T20:27:26.401Z,99.90
2019-03-02T20:29:56.709Z,99.90
2019-03-02T20:32:27.045Z,99.90
2019-03-02T20:34:57.344Z,99.90
2019-03-02T20:37:27.628Z,99.90
2019-03-02T20:39:57.905Z,99.90
2019-03-02T20:42:28.235Z,99.90
2019-03-02T20:44:58.556Z,99.90
2019-03-02T20:47:28.913Z,99.90
2019-03-02T20:49:59.291Z,99.90
2019-03-02T20:52:29.593Z,99.90
2019-03-02T20:54:59.915Z,99.90
2019-03-02T20:57:30.145Z,99.90
2019-03-02T21:00:00.398Z,99.90
2019-03-02T21:02:30.766Z,99.90
2019-03-02T21:05:01.060Z,99.90
2019-03-02T21:07:31.421Z,99.90
2019-03-02T21:10:01.752Z,99.90
2019-03-02T21:12:32.060Z,99.90
2019-03-02T21:15:02.368Z,99.90
2019-03-02T21:17:32.694Z,99.90
2019-03-02T21:20:03.142Z,99.90
2019-03-02T21:22:33.498Z,99.90
2019-03-02T21:25:04.016Z,99.90
2019-03-02T21:27:34.346Z,99.90
2019-03-02T21:30:05.257Z,99.90
2019-03-02T21:32:35.616Z,99.90
2019-03-02T21:35:06.320Z,99.90
2019-03-02T21:37:36.638Z,99.90
2019-03-02T21:40:12.516Z,99.90
2019-03-02T21:42:42.840Z,99.90
2019-03-02T21:45:15.038Z,99.90
2019-03-02T21:47:45.734Z,99.90
2019-03-02T21:50:18.265Z,99.90
2019-03-02T21:52:48.581Z,99.90
2019-03-02T21:55:19.011Z,99.90
2019-03-02T21:57:49.249Z,99.90
2019-03-02T22:00:21.720Z,99.90
2019-03-02T22:02:52.353Z,99.90
2019-03-02T22:05:22.676Z,99.90
2019-03-02T22:07:53.197Z,99.90
2019-03-02T22:10:29.021Z,99.90
2019-03-02T22:12:59.390Z,99.90
2019-03-02T22:15:30.125Z,99.90
2019-03-02T22:18:00.446Z,99.90
2019-03-02T22:20:30.834Z,99.90
2019-03-02T22:23:01.133Z,99.90
2019-03-02T22:25:31.480Z,99.90
2019-03-02T22:28:01.850Z,99.90
2019-03-02T22:30:32.168Z,99.90
2019-03-02T22:33:02.500Z,99.90
2019-03-02T22:35:32.823Z,99.90
2019-03-02T22:38:03.122Z,99.90
2019-03-02T22:40:33.360Z,99.90
2019-03-02T22:43:03.770Z,99.90
2019-03-02T22:45:34.182Z,99.90
2019-03-02T22:48:04.514Z,99.90
2019-03-02T22:50:35.001Z,99.90
2019-03-02T22:53:05.229Z,99.90
2019-03-02T22:55:35.526Z,99.90
2019-03-02T22:58:05.936Z,99.90
2019-03-02T23:01:20.661Z,99.90
2019-03-02T23:03:50.908Z,99.90
2019-03-02T23:06:21.224Z,99.90
2019-03-02T23:08:51.507Z,99.90
2019-03-02T23:11:21.828Z,99.90
2019-03-02T23:13:52.048Z,99.90
2019-03-02T23:16:22.364Z,99.90
2019-03-02T23:18:52.599Z,99.90
2019-03-02T23:21:22.823Z,99.90
2019-03-02T23:23:53.345Z,99.90
2019-03-02T23:26:23.623Z,99.90
2019-03-02T23:28:53.935Z,99.90
2019-03-02T23:31:24.141Z,99.90
2019-03-02T23:33:54.357Z,99.90
2019-03-02T23:36:24.685Z,99.90
2019-03-02T23:38:55.011Z,99.90
2019-03-02T23:41:25.296Z,99.90
2019-03-02T23:43:55.531Z,99.90
2019-03-02T23:46:25.812Z,99.90
2019-03-02T23:48:56.110Z,99.90
2019-03-02T23:51:26.349Z,99.90
2019-03-02T23:53:56.654Z,99.90
2019-03-02T23:56:26.944Z,99.90
2019-03-02T23:58:57.234Z,99.90
